sensor_id;sensor_type;location;lat;lon;timestamp;temperature;humidity
71254;HTU21D;59019;47.638;18.966;2022-07-29T00:02:02;22.22;60.77
71254;HTU21D;59019;47.638;18.966;2022-07-29T00:04:28;22.16;60.83
71254;HTU21D;59019;47.638;18.966;2022-07-29T00:06:53;22.08;60.74
71254;HTU21D;59019;47.638;18.966;2022-07-29T00:09:19;22.05;61.03
71254;HTU21D;59019;47.638;18.966;2022-07-29T00:11:45;22.01;61.12
71254;HTU21D;59019;47.638;18.966;2022-07-29T00:14:10;21.92;61.89
71254;HTU21D;59019;47.638;18.966;2022-07-29T00:16:36;21.85;62.08
71254;HTU21D;59019;47.638;18.966;2022-07-29T00:19:02;21.81;62.31
71254;HTU21D;59019;47.638;18.966;2022-07-29T00:21:28;21.77;62.66
71254;HTU21D;59019;47.638;18.966;2022-07-29T00:23:54;21.64;63.15
71254;HTU21D;59019;47.638;18.966;2022-07-29T00:26:20;21.53;63.53
71254;HTU21D;59019;47.638;18.966;2022-07-29T00:28:45;21.50;63.58
71254;HTU21D;59019;47.638;18.966;2022-07-29T00:31:11;21.40;63.97
71254;HTU21D;59019;47.638;18.966;2022-07-29T00:33:37;21.36;64.32
71254;HTU21D;59019;47.638;18.966;2022-07-29T00:36:03;21.28;64.63
71254;HTU21D;59019;47.638;18.966;2022-07-29T00:38:28;21.16;64.69
71254;HTU21D;59019;47.638;18.966;2022-07-29T00:40:54;21.02;65.23
71254;HTU21D;59019;47.638;18.966;2022-07-29T00:43:19;20.98;65.56
71254;HTU21D;59019;47.638;18.966;2022-07-29T00:45:45;20.87;66.05
71254;HTU21D;59019;47.638;18.966;2022-07-29T00:48:11;20.79;66.40
71254;HTU21D;59019;47.638;18.966;2022-07-29T00:50:36;20.66;66.96
71254;HTU21D;59019;47.638;18.966;2022-07-29T00:53:04;20.63;66.69
71254;HTU21D;59019;47.638;18.966;2022-07-29T00:55:30;20.49;67.34
71254;HTU21D;59019;47.638;18.966;2022-07-29T00:57:56;20.50;67.29
71254;HTU21D;59019;47.638;18.966;2022-07-29T01:00:25;20.51;67.45
71254;HTU21D;59019;47.638;18.966;2022-07-29T01:02:51;20.44;67.93
71254;HTU21D;59019;47.638;18.966;2022-07-29T01:05:19;20.36;68.23
71254;HTU21D;59019;47.638;18.966;2022-07-29T01:07:46;20.28;68.55
71254;HTU21D;59019;47.638;18.966;2022-07-29T01:10:14;20.17;68.83
71254;HTU21D;59019;47.638;18.966;2022-07-29T01:12:43;20.12;68.80
71254;HTU21D;59019;47.638;18.966;2022-07-29T01:15:10;19.95;69.49
71254;HTU21D;59019;47.638;18.966;2022-07-29T01:20:48;19.89;69.16
71254;HTU21D;59019;47.638;18.966;2022-07-29T01:31:12;19.52;70.67
71254;HTU21D;59019;47.638;18.966;2022-07-29T01:33:43;19.46;70.98
71254;HTU21D;59019;47.638;18.966;2022-07-29T01:36:27;19.43;71.31
71254;HTU21D;59019;47.638;18.966;2022-07-29T01:39:06;19.37;71.55
71254;HTU21D;59019;47.638;18.966;2022-07-29T01:41:34;19.32;71.83
71254;HTU21D;59019;47.638;18.966;2022-07-29T01:44:13;19.32;71.76
71254;HTU21D;59019;47.638;18.966;2022-07-29T01:46:44;19.22;72.11
71254;HTU21D;59019;47.638;18.966;2022-07-29T01:49:15;19.17;72.06
71254;HTU21D;59019;47.638;18.966;2022-07-29T01:51:57;19.12;72.26
71254;HTU21D;59019;47.638;18.966;2022-07-29T01:54:34;19.06;72.53
71254;HTU21D;59019;47.638;18.966;2022-07-29T01:57:01;19.06;72.61
71254;HTU21D;59019;47.638;18.966;2022-07-29T01:59:29;19.07;72.64
71254;HTU21D;59019;47.638;18.966;2022-07-29T02:01:57;19.07;72.43
71254;HTU21D;59019;47.638;18.966;2022-07-29T02:04:24;18.98;72.72
71254;HTU21D;59019;47.638;18.966;2022-07-29T02:06:52;18.97;72.80
71254;HTU21D;59019;47.638;18.966;2022-07-29T02:09:20;18.91;72.61
71254;HTU21D;59019;47.638;18.966;2022-07-29T02:11:53;18.87;73.03
71254;HTU21D;59019;47.638;18.966;2022-07-29T02:14:20;18.77;73.28
71254;HTU21D;59019;47.638;18.966;2022-07-29T02:16:49;18.77;73.35
71254;HTU21D;59019;47.638;18.966;2022-07-29T02:19:17;18.71;73.64
71254;HTU21D;59019;47.638;18.966;2022-07-29T02:21:44;18.66;73.36
71254;HTU21D;59019;47.638;18.966;2022-07-29T02:24:11;18.64;73.75
71254;HTU21D;59019;47.638;18.966;2022-07-29T02:26:40;18.65;73.89
71254;HTU21D;59019;47.638;18.966;2022-07-29T02:29:08;18.56;74.02
71254;HTU21D;59019;47.638;18.966;2022-07-29T02:31:35;18.53;74.01
71254;HTU21D;59019;47.638;18.966;2022-07-29T02:34:06;18.56;74.02
71254;HTU21D;59019;47.638;18.966;2022-07-29T02:36:34;18.53;73.99
71254;HTU21D;59019;47.638;18.966;2022-07-29T02:39:01;18.48;74.41
71254;HTU21D;59019;47.638;18.966;2022-07-29T02:41:41;18.46;74.51
71254;HTU21D;59019;47.638;18.966;2022-07-29T02:44:16;18.42;74.83
71254;HTU21D;59019;47.638;18.966;2022-07-29T02:47:04;18.39;74.69
71254;HTU21D;59019;47.638;18.966;2022-07-29T02:49:50;18.33;74.76
71254;HTU21D;59019;47.638;18.966;2022-07-29T02:52:36;18.30;74.64
71254;HTU21D;59019;47.638;18.966;2022-07-29T02:55:34;18.32;74.98
71254;HTU21D;59019;47.638;18.966;2022-07-29T02:58:05;18.22;75.22
71254;HTU21D;59019;47.638;18.966;2022-07-29T03:00:36;18.23;75.11
71254;HTU21D;59019;47.638;18.966;2022-07-29T03:03:07;18.22;75.05
71254;HTU21D;59019;47.638;18.966;2022-07-29T03:05:34;18.19;75.28
71254;HTU21D;59019;47.638;18.966;2022-07-29T03:08:03;18.14;75.82
71254;HTU21D;59019;47.638;18.966;2022-07-29T03:10:30;18.17;75.55
71254;HTU21D;59019;47.638;18.966;2022-07-29T03:12:57;18.25;75.51
71254;HTU21D;59019;47.638;18.966;2022-07-29T03:15:23;18.25;75.35
71254;HTU21D;59019;47.638;18.966;2022-07-29T03:17:50;18.25;75.90
71254;HTU21D;59019;47.638;18.966;2022-07-29T03:20:17;18.28;75.67
71254;HTU21D;59019;47.638;18.966;2022-07-29T03:22:43;18.18;75.83
71254;HTU21D;59019;47.638;18.966;2022-07-29T03:25:17;18.19;75.95
71254;HTU21D;59019;47.638;18.966;2022-07-29T03:27:43;18.20;75.63
71254;HTU21D;59019;47.638;18.966;2022-07-29T03:30:09;18.13;76.82
71254;HTU21D;59019;47.638;18.966;2022-07-29T03:32:36;18.13;76.64
71254;HTU21D;59019;47.638;18.966;2022-07-29T03:35:02;18.10;75.91
71254;HTU21D;59019;47.638;18.966;2022-07-29T03:37:28;18.11;75.83
71254;HTU21D;59019;47.638;18.966;2022-07-29T03:39:57;18.14;75.83
71254;HTU21D;59019;47.638;18.966;2022-07-29T03:42:25;18.13;75.91
71254;HTU21D;59019;47.638;18.966;2022-07-29T03:44:52;18.09;76.08
71254;HTU21D;59019;47.638;18.966;2022-07-29T03:47:22;18.17;76.15
71254;HTU21D;59019;47.638;18.966;2022-07-29T03:49:50;18.22;76.05
71254;HTU21D;59019;47.638;18.966;2022-07-29T03:52:17;18.23;75.69
71254;HTU21D;59019;47.638;18.966;2022-07-29T03:54:43;18.25;75.60
71254;HTU21D;59019;47.638;18.966;2022-07-29T03:57:10;18.29;75.79
71254;HTU21D;59019;47.638;18.966;2022-07-29T03:59:37;18.32;76.05
71254;HTU21D;59019;47.638;18.966;2022-07-29T04:02:04;18.33;76.38
71254;HTU21D;59019;47.638;18.966;2022-07-29T04:04:34;18.36;76.34
71254;HTU21D;59019;47.638;18.966;2022-07-29T04:06:59;18.39;76.41
71254;HTU21D;59019;47.638;18.966;2022-07-29T04:09:25;18.46;76.44
71254;HTU21D;59019;47.638;18.966;2022-07-29T04:11:51;18.56;76.17
71254;HTU21D;59019;47.638;18.966;2022-07-29T04:14:16;18.69;75.83
71254;HTU21D;59019;47.638;18.966;2022-07-29T04:16:42;18.81;75.44
71254;HTU21D;59019;47.638;18.966;2022-07-29T04:19:08;18.89;75.71
71254;HTU21D;59019;47.638;18.966;2022-07-29T04:21:38;18.97;75.15
71254;HTU21D;59019;47.638;18.966;2022-07-29T04:24:04;19.12;74.48
71254;HTU21D;59019;47.638;18.966;2022-07-29T04:26:29;19.24;74.24
71254;HTU21D;59019;47.638;18.966;2022-07-29T04:28:55;19.33;73.96
71254;HTU21D;59019;47.638;18.966;2022-07-29T04:31:21;19.45;74.08
71254;HTU21D;59019;47.638;18.966;2022-07-29T04:33:46;19.56;73.99
71254;HTU21D;59019;47.638;18.966;2022-07-29T04:36:12;19.74;73.83
71254;HTU21D;59019;47.638;18.966;2022-07-29T04:38:38;19.97;72.27
71254;HTU21D;59019;47.638;18.966;2022-07-29T04:41:04;20.24;70.93
71254;HTU21D;59019;47.638;18.966;2022-07-29T04:43:30;20.45;69.71
71254;HTU21D;59019;47.638;18.966;2022-07-29T04:45:56;20.70;69.18
71254;HTU21D;59019;47.638;18.966;2022-07-29T04:48:21;20.92;68.45
71254;HTU21D;59019;47.638;18.966;2022-07-29T04:50:47;21.07;67.97
71254;HTU21D;59019;47.638;18.966;2022-07-29T04:53:12;21.27;67.93
71254;HTU21D;59019;47.638;18.966;2022-07-29T04:55:38;21.38;67.43
71254;HTU21D;59019;47.638;18.966;2022-07-29T04:58:03;21.50;67.17
71254;HTU21D;59019;47.638;18.966;2022-07-29T05:00:29;21.68;66.71
71254;HTU21D;59019;47.638;18.966;2022-07-29T05:02:55;21.80;66.56
71254;HTU21D;59019;47.638;18.966;2022-07-29T05:05:20;21.92;65.72
71254;HTU21D;59019;47.638;18.966;2022-07-29T05:07:46;21.99;65.42
71254;HTU21D;59019;47.638;18.966;2022-07-29T05:10:11;22.20;65.25
71254;HTU21D;59019;47.638;18.966;2022-07-29T05:12:37;22.36;65.06
71254;HTU21D;59019;47.638;18.966;2022-07-29T05:15:03;22.46;64.21
71254;HTU21D;59019;47.638;18.966;2022-07-29T05:17:28;22.57;64.18
71254;HTU21D;59019;47.638;18.966;2022-07-29T05:19:54;22.76;64.15
71254;HTU21D;59019;47.638;18.966;2022-07-29T05:22:20;22.91;63.98
71254;HTU21D;59019;47.638;18.966;2022-07-29T05:24:46;23.13;63.73
71254;HTU21D;59019;47.638;18.966;2022-07-29T05:27:12;23.32;63.21
71254;HTU21D;59019;47.638;18.966;2022-07-29T05:29:37;23.47;63.07
71254;HTU21D;59019;47.638;18.966;2022-07-29T05:32:03;23.67;62.79
71254;HTU21D;59019;47.638;18.966;2022-07-29T05:34:30;23.96;62.39
71254;HTU21D;59019;47.638;18.966;2022-07-29T05:36:56;24.03;61.57
71254;HTU21D;59019;47.638;18.966;2022-07-29T05:39:22;24.42;61.08
71254;HTU21D;59019;47.638;18.966;2022-07-29T05:41:47;24.83;60.07
71254;HTU21D;59019;47.638;18.966;2022-07-29T05:44:13;25.28;59.11
71254;HTU21D;59019;47.638;18.966;2022-07-29T05:46:39;25.57;58.74
71254;HTU21D;59019;47.638;18.966;2022-07-29T05:49:04;25.75;57.61
71254;HTU21D;59019;47.638;18.966;2022-07-29T05:51:32;25.94;57.45
71254;HTU21D;59019;47.638;18.966;2022-07-29T05:53:58;25.79;57.28
71254;HTU21D;59019;47.638;18.966;2022-07-29T05:56:24;25.59;55.29
71254;HTU21D;59019;47.638;18.966;2022-07-29T05:58:50;25.96;56.39
71254;HTU21D;59019;47.638;18.966;2022-07-29T06:01:16;26.22;56.24
71254;HTU21D;59019;47.638;18.966;2022-07-29T06:03:41;26.15;54.09
71254;HTU21D;59019;47.638;18.966;2022-07-29T06:06:07;26.52;53.11
71254;HTU21D;59019;47.638;18.966;2022-07-29T06:08:33;26.92;51.33
71254;HTU21D;59019;47.638;18.966;2022-07-29T06:11:00;27.42;52.07
71254;HTU21D;59019;47.638;18.966;2022-07-29T06:13:26;27.69;49.44
71254;HTU21D;59019;47.638;18.966;2022-07-29T06:15:51;27.95;48.37
71254;HTU21D;59019;47.638;18.966;2022-07-29T06:18:17;28.30;47.16
71254;HTU21D;59019;47.638;18.966;2022-07-29T06:20:43;28.50;47.35
71254;HTU21D;59019;47.638;18.966;2022-07-29T06:23:08;28.69;46.38
71254;HTU21D;59019;47.638;18.966;2022-07-29T06:25:35;28.56;46.19
71254;HTU21D;59019;47.638;18.966;2022-07-29T06:28:02;28.84;46.02
71254;HTU21D;59019;47.638;18.966;2022-07-29T06:30:28;29.05;45.47
71254;HTU21D;59019;47.638;18.966;2022-07-29T06:32:54;29.17;45.29
71254;HTU21D;59019;47.638;18.966;2022-07-29T06:35:21;29.22;45.40
71254;HTU21D;59019;47.638;18.966;2022-07-29T06:37:47;29.43;44.96
71254;HTU21D;59019;47.638;18.966;2022-07-29T06:40:13;29.77;44.42
71254;HTU21D;59019;47.638;18.966;2022-07-29T06:42:57;29.88;44.31
71254;HTU21D;59019;47.638;18.966;2022-07-29T06:45:23;30.24;43.44
71254;HTU21D;59019;47.638;18.966;2022-07-29T06:47:49;30.23;43.24
71254;HTU21D;59019;47.638;18.966;2022-07-29T06:50:15;30.24;43.00
71254;HTU21D;59019;47.638;18.966;2022-07-29T06:52:41;30.13;43.08
71254;HTU21D;59019;47.638;18.966;2022-07-29T06:55:07;30.21;42.97
71254;HTU21D;59019;47.638;18.966;2022-07-29T06:57:33;30.41;42.84
71254;HTU21D;59019;47.638;18.966;2022-07-29T06:59:59;29.42;44.02
71254;HTU21D;59019;47.638;18.966;2022-07-29T07:02:25;30.00;43.78
71254;HTU21D;59019;47.638;18.966;2022-07-29T07:04:51;29.75;44.25
71254;HTU21D;59019;47.638;18.966;2022-07-29T07:07:16;29.92;44.26
71254;HTU21D;59019;47.638;18.966;2022-07-29T07:09:42;30.15;43.78
71254;HTU21D;59019;47.638;18.966;2022-07-29T07:12:08;30.30;43.84
71254;HTU21D;59019;47.638;18.966;2022-07-29T07:14:34;30.71;43.08
71254;HTU21D;59019;47.638;18.966;2022-07-29T07:16:59;30.92;42.81
71254;HTU21D;59019;47.638;18.966;2022-07-29T07:19:29;31.27;42.75
71254;HTU21D;59019;47.638;18.966;2022-07-29T07:21:55;31.57;42.19
71254;HTU21D;59019;47.638;18.966;2022-07-29T07:24:21;31.34;43.02
71254;HTU21D;59019;47.638;18.966;2022-07-29T07:26:46;31.45;42.74
71254;HTU21D;59019;47.638;18.966;2022-07-29T07:29:12;31.53;42.45
71254;HTU21D;59019;47.638;18.966;2022-07-29T07:31:38;31.85;41.98
71254;HTU21D;59019;47.638;18.966;2022-07-29T07:34:04;31.68;41.98
71254;HTU21D;59019;47.638;18.966;2022-07-29T07:36:30;32.34;41.29
71254;HTU21D;59019;47.638;18.966;2022-07-29T07:38:55;33.02;40.57
71254;HTU21D;59019;47.638;18.966;2022-07-29T07:41:21;32.78;40.30
71254;HTU21D;59019;47.638;18.966;2022-07-29T07:43:52;32.28;40.84
71254;HTU21D;59019;47.638;18.966;2022-07-29T07:46:18;32.62;40.63
71254;HTU21D;59019;47.638;18.966;2022-07-29T07:48:43;32.97;40.16
71254;HTU21D;59019;47.638;18.966;2022-07-29T07:51:09;33.00;39.64
71254;HTU21D;59019;47.638;18.966;2022-07-29T07:53:35;32.82;39.95
71254;HTU21D;59019;47.638;18.966;2022-07-29T07:56:01;32.77;39.81
71254;HTU21D;59019;47.638;18.966;2022-07-29T07:58:26;32.92;39.70
71254;HTU21D;59019;47.638;18.966;2022-07-29T08:00:52;33.40;39.16
71254;HTU21D;59019;47.638;18.966;2022-07-29T08:03:17;33.76;38.62
71254;HTU21D;59019;47.638;18.966;2022-07-29T08:05:43;33.65;38.80
71254;HTU21D;59019;47.638;18.966;2022-07-29T08:08:09;33.75;38.62
71254;HTU21D;59019;47.638;18.966;2022-07-29T08:10:34;33.70;39.30
71254;HTU21D;59019;47.638;18.966;2022-07-29T08:13:21;34.25;37.82
71254;HTU21D;59019;47.638;18.966;2022-07-29T08:15:46;33.80;38.35
71254;HTU21D;59019;47.638;18.966;2022-07-29T08:18:13;34.00;38.22
71254;HTU21D;59019;47.638;18.966;2022-07-29T08:20:39;34.73;37.33
71254;HTU21D;59019;47.638;18.966;2022-07-29T08:23:07;35.04;36.15
71254;HTU21D;59019;47.638;18.966;2022-07-29T08:25:35;35.30;35.50
71254;HTU21D;59019;47.638;18.966;2022-07-29T08:28:01;35.52;35.54
71254;HTU21D;59019;47.638;18.966;2022-07-29T08:30:26;35.37;35.80
71254;HTU21D;59019;47.638;18.966;2022-07-29T08:32:52;35.28;35.44
71254;HTU21D;59019;47.638;18.966;2022-07-29T08:35:22;34.67;36.36
71254;HTU21D;59019;47.638;18.966;2022-07-29T08:37:48;34.75;36.34
71254;HTU21D;59019;47.638;18.966;2022-07-29T08:40:14;35.35;35.96
71254;HTU21D;59019;47.638;18.966;2022-07-29T08:42:40;35.45;35.47
71254;HTU21D;59019;47.638;18.966;2022-07-29T08:45:06;35.35;35.76
71254;HTU21D;59019;47.638;18.966;2022-07-29T08:47:33;35.06;35.56
71254;HTU21D;59019;47.638;18.966;2022-07-29T08:49:58;35.50;35.24
71254;HTU21D;59019;47.638;18.966;2022-07-29T08:52:25;35.97;34.41
71254;HTU21D;59019;47.638;18.966;2022-07-29T08:54:52;35.84;34.48
71254;HTU21D;59019;47.638;18.966;2022-07-29T08:57:19;35.26;34.65
71254;HTU21D;59019;47.638;18.966;2022-07-29T08:59:46;36.01;34.43
71254;HTU21D;59019;47.638;18.966;2022-07-29T09:02:21;36.32;33.81
71254;HTU21D;59019;47.638;18.966;2022-07-29T09:04:48;36.88;33.34
71254;HTU21D;59019;47.638;18.966;2022-07-29T09:07:16;36.43;34.04
71254;HTU21D;59019;47.638;18.966;2022-07-29T09:09:43;36.30;34.37
71254;HTU21D;59019;47.638;18.966;2022-07-29T09:12:11;36.39;33.96
71254;HTU21D;59019;47.638;18.966;2022-07-29T09:14:38;36.75;33.66
71254;HTU21D;59019;47.638;18.966;2022-07-29T09:17:05;36.97;33.31
71254;HTU21D;59019;47.638;18.966;2022-07-29T09:19:33;36.97;33.16
71254;HTU21D;59019;47.638;18.966;2022-07-29T09:22:04;37.35;32.73
71254;HTU21D;59019;47.638;18.966;2022-07-29T09:24:41;37.48;32.67
71254;HTU21D;59019;47.638;18.966;2022-07-29T09:27:17;37.40;32.17
71254;HTU21D;59019;47.638;18.966;2022-07-29T09:29:44;38.02;32.09
71254;HTU21D;59019;47.638;18.966;2022-07-29T09:32:10;38.50;31.63
71254;HTU21D;59019;47.638;18.966;2022-07-29T09:34:36;38.63;31.03
71254;HTU21D;59019;47.638;18.966;2022-07-29T09:37:02;38.44;31.32
71254;HTU21D;59019;47.638;18.966;2022-07-29T09:39:37;38.92;30.10
71254;HTU21D;59019;47.638;18.966;2022-07-29T09:42:10;38.58;29.88
71254;HTU21D;59019;47.638;18.966;2022-07-29T09:44:42;38.26;30.11
71254;HTU21D;59019;47.638;18.966;2022-07-29T09:47:10;38.36;30.64
71254;HTU21D;59019;47.638;18.966;2022-07-29T09:49:59;38.59;30.58
71254;HTU21D;59019;47.638;18.966;2022-07-29T09:52:29;38.97;30.08
71254;HTU21D;59019;47.638;18.966;2022-07-29T09:55:08;39.27;29.54
71254;HTU21D;59019;47.638;18.966;2022-07-29T09:57:35;38.82;29.51
71254;HTU21D;59019;47.638;18.966;2022-07-29T10:00:10;38.61;29.89
71254;HTU21D;59019;47.638;18.966;2022-07-29T10:02:38;39.17;29.04
71254;HTU21D;59019;47.638;18.966;2022-07-29T10:05:06;38.93;29.56
71254;HTU21D;59019;47.638;18.966;2022-07-29T10:10:10;39.63;28.58
71254;HTU21D;59019;47.638;18.966;2022-07-29T10:12:49;40.11;27.19
71254;HTU21D;59019;47.638;18.966;2022-07-29T10:15:15;39.92;27.39
71254;HTU21D;59019;47.638;18.966;2022-07-29T10:17:41;39.35;27.77
71254;HTU21D;59019;47.638;18.966;2022-07-29T10:20:08;39.62;28.00
71254;HTU21D;59019;47.638;18.966;2022-07-29T10:22:33;38.75;27.86
71254;HTU21D;59019;47.638;18.966;2022-07-29T10:24:59;37.76;28.74
71254;HTU21D;59019;47.638;18.966;2022-07-29T10:27:25;37.48;29.64
71254;HTU21D;59019;47.638;18.966;2022-07-29T10:29:50;37.95;29.70
71254;HTU21D;59019;47.638;18.966;2022-07-29T10:44:23;39.68;27.42
71254;HTU21D;59019;47.638;18.966;2022-07-29T10:46:51;40.03;27.58
71254;HTU21D;59019;47.638;18.966;2022-07-29T10:49:23;40.58;26.45
71254;HTU21D;59019;47.638;18.966;2022-07-29T10:52:10;40.52;26.33
71254;HTU21D;59019;47.638;18.966;2022-07-29T10:54:41;40.33;26.12
71254;HTU21D;59019;47.638;18.966;2022-07-29T10:59:48;38.32;28.56
71254;HTU21D;59019;47.638;18.966;2022-07-29T11:05:05;38.53;27.52
71254;HTU21D;59019;47.638;18.966;2022-07-29T11:07:33;37.69;29.00
71254;HTU21D;59019;47.638;18.966;2022-07-29T11:15:15;39.42;27.32
71254;HTU21D;59019;47.638;18.966;2022-07-29T11:23:20;38.73;28.65
71254;HTU21D;59019;47.638;18.966;2022-07-29T11:31:46;38.71;28.64
71254;HTU21D;59019;47.638;18.966;2022-07-29T11:39:30;39.73;27.54
71254;HTU21D;59019;47.638;18.966;2022-07-29T11:47:30;38.74;28.47
71254;HTU21D;59019;47.638;18.966;2022-07-29T11:49:57;39.30;28.06
71254;HTU21D;59019;47.638;18.966;2022-07-29T11:52:23;39.95;26.94
71254;HTU21D;59019;47.638;18.966;2022-07-29T11:54:50;39.23;26.91
71254;HTU21D;59019;47.638;18.966;2022-07-29T11:57:17;38.77;27.77
71254;HTU21D;59019;47.638;18.966;2022-07-29T11:59:46;38.31;27.84
71254;HTU21D;59019;47.638;18.966;2022-07-29T12:02:13;38.00;28.02
71254;HTU21D;59019;47.638;18.966;2022-07-29T12:05:05;36.91;29.13
71254;HTU21D;59019;47.638;18.966;2022-07-29T12:07:32;36.33;30.14
71254;HTU21D;59019;47.638;18.966;2022-07-29T12:09:58;35.93;30.70
71254;HTU21D;59019;47.638;18.966;2022-07-29T12:12:24;36.28;30.98
71254;HTU21D;59019;47.638;18.966;2022-07-29T12:14:50;37.30;29.96
71254;HTU21D;59019;47.638;18.966;2022-07-29T12:17:33;38.09;29.00
71254;HTU21D;59019;47.638;18.966;2022-07-29T12:20:01;38.52;27.58
71254;HTU21D;59019;47.638;18.966;2022-07-29T12:22:36;38.53;26.89
71254;HTU21D;59019;47.638;18.966;2022-07-29T12:25:04;38.74;26.72
71254;HTU21D;59019;47.638;18.966;2022-07-29T12:27:31;39.40;26.20
71254;HTU21D;59019;47.638;18.966;2022-07-29T12:29:59;39.88;25.85
71254;HTU21D;59019;47.638;18.966;2022-07-29T12:32:36;39.58;26.38
71254;HTU21D;59019;47.638;18.966;2022-07-29T12:35:09;39.87;26.00
71254;HTU21D;59019;47.638;18.966;2022-07-29T12:37:37;40.11;25.71
71254;HTU21D;59019;47.638;18.966;2022-07-29T12:40:05;40.08;25.34
71254;HTU21D;59019;47.638;18.966;2022-07-29T12:42:31;40.43;25.47
71254;HTU21D;59019;47.638;18.966;2022-07-29T12:44:57;40.53;25.54
71254;HTU21D;59019;47.638;18.966;2022-07-29T12:47:22;40.90;24.78
71254;HTU21D;59019;47.638;18.966;2022-07-29T12:49:49;40.76;24.50
71254;HTU21D;59019;47.638;18.966;2022-07-29T12:52:32;40.55;25.07
71254;HTU21D;59019;47.638;18.966;2022-07-29T12:54:59;41.00;24.56
71254;HTU21D;59019;47.638;18.966;2022-07-29T12:57:25;40.55;24.85
71254;HTU21D;59019;47.638;18.966;2022-07-29T13:00:08;41.04;24.91
71254;HTU21D;59019;47.638;18.966;2022-07-29T13:02:37;41.09;24.49
71254;HTU21D;59019;47.638;18.966;2022-07-29T13:05:03;41.01;24.18
71254;HTU21D;59019;47.638;18.966;2022-07-29T13:07:31;41.12;24.18
71254;HTU21D;59019;47.638;18.966;2022-07-29T13:10:17;40.53;25.03
71254;HTU21D;59019;47.638;18.966;2022-07-29T13:13:06;40.28;25.75
71254;HTU21D;59019;47.638;18.966;2022-07-29T13:15:35;39.67;25.86
71254;HTU21D;59019;47.638;18.966;2022-07-29T13:18:01;38.37;26.45
71254;HTU21D;59019;47.638;18.966;2022-07-29T13:20:28;37.84;27.07
71254;HTU21D;59019;47.638;18.966;2022-07-29T13:23:01;37.77;27.70
71254;HTU21D;59019;47.638;18.966;2022-07-29T13:25:31;37.28;28.16
71254;HTU21D;59019;47.638;18.966;2022-07-29T13:27:58;37.36;28.26
71254;HTU21D;59019;47.638;18.966;2022-07-29T13:30:24;37.30;27.82
71254;HTU21D;59019;47.638;18.966;2022-07-29T13:32:51;37.05;28.03
71254;HTU21D;59019;47.638;18.966;2022-07-29T13:35:18;36.83;28.39
71254;HTU21D;59019;47.638;18.966;2022-07-29T13:37:44;37.13;28.27
71254;HTU21D;59019;47.638;18.966;2022-07-29T13:40:10;37.92;28.15
71254;HTU21D;59019;47.638;18.966;2022-07-29T13:42:36;38.74;27.20
71254;HTU21D;59019;47.638;18.966;2022-07-29T13:45:03;39.51;26.21
71254;HTU21D;59019;47.638;18.966;2022-07-29T13:47:29;40.04;25.29
71254;HTU21D;59019;47.638;18.966;2022-07-29T13:49:55;39.74;25.90
71254;HTU21D;59019;47.638;18.966;2022-07-29T13:52:21;40.37;25.47
71254;HTU21D;59019;47.638;18.966;2022-07-29T13:54:46;40.97;24.45
71254;HTU21D;59019;47.638;18.966;2022-07-29T13:57:13;41.20;24.05
71254;HTU21D;59019;47.638;18.966;2022-07-29T13:59:40;41.17;24.46
71254;HTU21D;59019;47.638;18.966;2022-07-29T14:02:06;41.28;24.11
71254;HTU21D;59019;47.638;18.966;2022-07-29T14:04:32;41.43;23.59
71254;HTU21D;59019;47.638;18.966;2022-07-29T14:06:58;41.58;23.69
71254;HTU21D;59019;47.638;18.966;2022-07-29T14:09:24;41.29;23.32
71254;HTU21D;59019;47.638;18.966;2022-07-29T14:11:49;41.40;24.08
71254;HTU21D;59019;47.638;18.966;2022-07-29T14:14:17;41.39;23.88
71254;HTU21D;59019;47.638;18.966;2022-07-29T14:16:43;41.27;23.77
71254;HTU21D;59019;47.638;18.966;2022-07-29T14:19:10;41.06;24.04
71254;HTU21D;59019;47.638;18.966;2022-07-29T14:21:37;41.02;23.62
71254;HTU21D;59019;47.638;18.966;2022-07-29T14:24:03;40.54;24.53
71254;HTU21D;59019;47.638;18.966;2022-07-29T14:26:29;40.44;24.07
71254;HTU21D;59019;47.638;18.966;2022-07-29T14:28:54;38.65;24.50
71254;HTU21D;59019;47.638;18.966;2022-07-29T14:31:20;39.08;25.20
71254;HTU21D;59019;47.638;18.966;2022-07-29T14:33:46;39.15;25.17
71254;HTU21D;59019;47.638;18.966;2022-07-29T14:36:11;39.48;25.46
71254;HTU21D;59019;47.638;18.966;2022-07-29T14:38:37;39.52;25.62
71254;HTU21D;59019;47.638;18.966;2022-07-29T14:41:04;39.92;24.41
71254;HTU21D;59019;47.638;18.966;2022-07-29T14:43:29;39.87;24.95
71254;HTU21D;59019;47.638;18.966;2022-07-29T14:45:55;40.16;24.69
71254;HTU21D;59019;47.638;18.966;2022-07-29T14:48:20;39.82;24.75
71254;HTU21D;59019;47.638;18.966;2022-07-29T14:50:46;39.88;24.98
71254;HTU21D;59019;47.638;18.966;2022-07-29T14:53:12;39.98;25.27
71254;HTU21D;59019;47.638;18.966;2022-07-29T14:55:38;40.07;24.94
71254;HTU21D;59019;47.638;18.966;2022-07-29T14:58:04;39.73;25.17
71254;HTU21D;59019;47.638;18.966;2022-07-29T15:00:30;39.92;24.87
71254;HTU21D;59019;47.638;18.966;2022-07-29T15:02:58;39.66;25.30
71254;HTU21D;59019;47.638;18.966;2022-07-29T15:05:24;39.94;24.98
71254;HTU21D;59019;47.638;18.966;2022-07-29T15:07:50;39.98;24.36
71254;HTU21D;59019;47.638;18.966;2022-07-29T15:10:15;39.43;25.57
71254;HTU21D;59019;47.638;18.966;2022-07-29T15:12:41;39.79;25.14
71254;HTU21D;59019;47.638;18.966;2022-07-29T15:15:07;39.84;24.82
71254;HTU21D;59019;47.638;18.966;2022-07-29T15:17:32;39.40;25.16
71254;HTU21D;59019;47.638;18.966;2022-07-29T15:19:58;39.14;25.74
71254;HTU21D;59019;47.638;18.966;2022-07-29T15:22:24;38.88;26.33
71254;HTU21D;59019;47.638;18.966;2022-07-29T15:24:50;38.71;26.24
71254;HTU21D;59019;47.638;18.966;2022-07-29T15:27:15;38.09;27.03
71254;HTU21D;59019;47.638;18.966;2022-07-29T15:29:42;37.69;27.84
71254;HTU21D;59019;47.638;18.966;2022-07-29T15:32:08;37.11;27.94
71254;HTU21D;59019;47.638;18.966;2022-07-29T15:34:34;37.04;28.68
71254;HTU21D;59019;47.638;18.966;2022-07-29T15:37:00;36.92;28.18
71254;HTU21D;59019;47.638;18.966;2022-07-29T15:39:26;37.16;28.44
71254;HTU21D;59019;47.638;18.966;2022-07-29T15:41:52;36.27;28.17
71254;HTU21D;59019;47.638;18.966;2022-07-29T15:44:18;36.22;28.87
71254;HTU21D;59019;47.638;18.966;2022-07-29T15:46:43;35.85;29.38
71254;HTU21D;59019;47.638;18.966;2022-07-29T15:49:28;35.80;30.54
71254;HTU21D;59019;47.638;18.966;2022-07-29T15:52:01;35.58;31.27
71254;HTU21D;59019;47.638;18.966;2022-07-29T15:54:28;35.50;31.16
71254;HTU21D;59019;47.638;18.966;2022-07-29T15:56:55;35.86;30.31
71254;HTU21D;59019;47.638;18.966;2022-07-29T15:59:21;35.75;29.34
71254;HTU21D;59019;47.638;18.966;2022-07-29T16:01:47;35.47;29.60
71254;HTU21D;59019;47.638;18.966;2022-07-29T16:04:15;35.33;30.32
71254;HTU21D;59019;47.638;18.966;2022-07-29T16:06:43;35.12;31.22